| time (UTC) | temp C | wind direction | speed KPH | gust KPH | rain 1hr cm | rain 24hr cm | rain mn cm | humidity % | barometer mb |
| 20260902204129 | 13 | 48 | 11.3 | 14.5 | 0.00 | 0.00 | 0.00 | 76 | 857.7 |
| 20260902203514 | 13 | 46 | 9.7 | 14.5 | 0.00 | 0.00 | 0.00 | 76 | 857.7 |
| 20260902202515 | 13 | 47 | 9.7 | 16.1 | 0.00 | 0.00 | 0.00 | 76 | 857.7 |
| 20260902201128 | 14 | 45 | 8.0 | 14.5 | 0.00 | 0.00 | 0.00 | 75 | 857.8 |
| 20260902200515 | 13 | 42 | 6.4 | 12.9 | 0.00 | 0.00 | 0.00 | 77 | 857.9 |
| 20260902195515 | 13 | 48 | 6.4 | 11.3 | 0.00 | 0.00 | 0.00 | 77 | 857.9 |
| 20260902194128 | 13 | 51 | 6.4 | 11.3 | 0.00 | 0.00 | 0.00 | 78 | 857.7 |
| 20260902193515 | 14 | 47 | 6.4 | 11.3 | 0.00 | 0.00 | 0.00 | 77 | 857.8 |
| 20260902192514 | 14 | 51 | 6.4 | 9.7 | 0.00 | 0.00 | 0.00 | 76 | 857.8 |
| 20260902191128 | 14 | 49 | 4.8 | 8.0 | 0.00 | 0.00 | 0.00 | 75 | 857.8 |
| 20260902190514 | 15 | 44 | 6.4 | 9.7 | 0.00 | 0.00 | 0.00 | 75 | 857.6 |
| 20260902185515 | 15 | 47 | 4.8 | 8.0 | 0.00 | 0.00 | 0.00 | 74 | 857.5 |
| 20260902184128 | 15 | 44 | 4.8 | 8.0 | 0.00 | 0.00 | 0.00 | 73 | 857.5 |
| 20260902183515 | 15 | 47 | 4.8 | 6.4 | 0.00 | 0.00 | 0.00 | 73 | 857.4 |
| 20260902182515 | 16 | 44 | 1.6 | 4.8 | 0.00 | 0.00 | 0.00 | 69 | 857.3 |
| 20260902181128 | 16 | 99 | 1.6 | 9.7 | 0.00 | 0.00 | 0.00 | 69 | 857.3 |
| 20260902180515 | 16 | 76 | 1.6 | 8.0 | 0.00 | 0.00 | 0.00 | 71 | 857.2 |
| 20260902175515 | 16 | 47 | 3.2 | 6.4 | 0.00 | 0.00 | 0.00 | 71 | 857.0 |
| 20260902174128 | 16 | 45 | 4.8 | 6.4 | 0.00 | 0.00 | 0.00 | 71 | 856.9 |
| 20260902173514 | 16 | 60 | 3.2 | 6.4 | 0.00 | 0.00 | 0.00 | 68 | 856.9 |
| 20260902172515 | 17 | 56 | 3.2 | 6.4 | 0.00 | 0.00 | 0.00 | 65 | 856.9 |
| 20260902171128 | 18 | 172 | 1.6 | 8.0 | 0.00 | 0.00 | 0.00 | 62 | 856.9 |
| 20260902170515 | 18 | 195 | 3.2 | 8.0 | 0.00 | 0.00 | 0.00 | 59 | 856.9 |
| 20260902165515 | 18 | 198 | 4.8 | 11.3 | 0.00 | 0.00 | 0.00 | 57 | 857.0 |
| 20260902164128 | 18 | 216 | 6.4 | 14.5 | 0.00 | 0.00 | 0.00 | 56 | 856.8 |
| 20260902163515 | 19 | 218 | 9.7 | 17.7 | 0.00 | 0.00 | 0.00 | 54 | 856.9 |
| 20260902162515 | 19 | 209 | 9.7 | 20.9 | 0.00 | 0.00 | 0.00 | 53 | 856.9 |
| 20260902161128 | 20 | 219 | 9.7 | 24.1 | 0.00 | 0.00 | 0.00 | 50 | 856.8 |
| 20260902160514 | 20 | 224 | 11.3 | 22.5 | 0.00 | 0.00 | 0.00 | 46 | 856.8 |
| 20260902155515 | 20 | 230 | 12.9 | 22.5 | 0.00 | 0.00 | 0.00 | 46 | 856.8 |
| 20260902154128 | 20 | 223 | 9.7 | 19.3 | 0.00 | 0.00 | 0.00 | 46 | 856.7 |
| 20260902153515 | 21 | 218 | 9.7 | 20.9 | 0.00 | 0.00 | 0.00 | 48 | 856.9 |
| 20260902152514 | 20 | 229 | 12.9 | 20.9 | 0.00 | 0.00 | 0.00 | 47 | 856.8 |
| 20260902151128 | 21 | 233 | 11.3 | 19.3 | 0.00 | 0.00 | 0.00 | 46 | 856.9 |
| 20260902150515 | 21 | 231 | 11.3 | 19.3 | 0.00 | 0.00 | 0.00 | 44 | 856.9 |
| 20260902145515 | 21 | 230 | 11.3 | 19.3 | 0.00 | 0.00 | 0.00 | 46 | 856.9 |
| 20260902144129 | 21 | 222 | 8.0 | 19.3 | 0.00 | 0.00 | 0.00 | 47 | 856.9 |
| 20260902143514 | 20 | 236 | 12.9 | 20.9 | 0.00 | 0.00 | 0.00 | 47 | 856.9 |
| 20260902142515 | 20 | 235 | 11.3 | 20.9 | 0.00 | 0.00 | 0.00 | 47 | 856.8 |
| 20260902141128 | 20 | 237 | 12.9 | 20.9 | 0.00 | 0.00 | 0.00 | 47 | 856.8 |
| 20260902140515 | 21 | 228 | 9.7 | 19.3 | 0.00 | 0.00 | 0.00 | 48 | 857.1 |
| 20260902135515 | 20 | 220 | 11.3 | 19.3 | 0.00 | 0.00 | 0.00 | 49 | 857.0 |
| 20260902134126 | 20 | 217 | 8.0 | 20.9 | 0.00 | 0.00 | 0.00 | 48 | 856.9 |
| 20260902133515 | 20 | 228 | 11.3 | 20.9 | 0.00 | 0.00 | 0.00 | 46 | 856.9 |
| 20260902132515 | 21 | 235 | 12.9 | 20.9 | 0.00 | 0.00 | 0.00 | 44 | 857.0 |
| 20260902131128 | 21 | 229 | 9.7 | 16.1 | 0.00 | 0.00 | 0.00 | 48 | 857.1 |
| 20260902130515 | 20 | 226 | 9.7 | 17.7 | 0.00 | 0.00 | 0.00 | 47 | 857.0 |
| 20260902125515 | 20 | 230 | 11.3 | 19.3 | 0.00 | 0.00 | 0.00 | 49 | 857.2 |
| 20260902124127 | 20 | 224 | 8.0 | 17.7 | 0.00 | 0.00 | 0.00 | 49 | 857.2 |
| 20260902123515 | 20 | 223 | 9.7 | 17.7 | 0.00 | 0.00 | 0.00 | 50 | 857.2 |
| 20260902122515 | 19 | 236 | 11.3 | 19.3 | 0.00 | 0.00 | 0.00 | 52 | 857.2 |
| 20260902121128 | 19 | 244 | 12.9 | 20.9 | 0.00 | 0.00 | 0.00 | 51 | 857.3 |
| 20260902120514 | 19 | 242 | 12.9 | 20.9 | 0.00 | 0.00 | 0.00 | 49 | 857.3 |
| 20260902115514 | 19 | 234 | 9.7 | 17.7 | 0.00 | 0.00 | 0.00 | 53 | 857.3 |
| 20260902114128 | 19 | 246 | 12.9 | 20.9 | 0.00 | 0.00 | 0.00 | 53 | 857.3 |
| 20260902113515 | 20 | 233 | 11.3 | 25.7 | 0.00 | 0.00 | 0.00 | 49 | 857.2 |
| 20260902112515 | 19 | 218 | 11.3 | 20.9 | 0.00 | 0.00 | 0.00 | 54 | 857.2 |
| 20260902111128 | 19 | 205 | 6.4 | 14.5 | 0.00 | 0.00 | 0.00 | 50 | 857.1 |
| 20260902110515 | 19 | 161 | 1.6 | 4.8 | 0.00 | 0.00 | 0.00 | 51 | 857.2 |
| 20260902105514 | 18 | 188 | 3.2 | 8.0 | 0.00 | 0.00 | 0.00 | 50 | 857.2 |
| 20260902104128 | 18 | 208 | 4.8 | 9.7 | 0.00 | 0.00 | 0.00 | 54 | 857.2 |
| 20260902103515 | 18 | 178 | 3.2 | 6.4 | 0.00 | 0.00 | 0.00 | 52 | 857.1 |
| 20260902102514 | 18 | 179 | 3.2 | 6.4 | 0.00 | 0.00 | 0.00 | 52 | 857.3 |
| 20260902101128 | 18 | 243 | 4.8 | 9.7 | 0.00 | 0.00 | 0.00 | 51 | 857.4 |
| 20260902100515 | 17 | 251 | 6.4 | 12.9 | 0.00 | 0.00 | 0.00 | 57 | 857.4 |
| 20260902095515 | 17 | 233 | 6.4 | 11.3 | 0.00 | 0.00 | 0.00 | 60 | 857.3 |
| 20260902094128 | 17 | 222 | 8.0 | 14.5 | 0.00 | 0.00 | 0.00 | 57 | 857.4 |
| 20260902093515 | 17 | 227 | 8.0 | 14.5 | 0.00 | 0.00 | 0.00 | 55 | 857.4 |
| 20260902092514 | 17 | 221 | 6.4 | 11.3 | 0.00 | 0.00 | 0.00 | 57 | 857.4 |
| 20260902091127 | 17 | 193 | 3.2 | 8.0 | 0.00 | 0.00 | 0.00 | 60 | 857.5 |
| 20260902090515 | 17 | 127 | 1.6 | 3.2 | 0.00 | 0.00 | 0.00 | 61 | 857.4 |
| 20260902084127 | 16 | 92 | 3.2 | 3.2 | 0.00 | 0.00 | 0.00 | 62 | 857.2 |
| 20260902083515 | 15 | 58 | 3.2 | 4.8 | 0.00 | 0.00 | 0.00 | 74 | 856.9 |
| 20260902082515 | 15 | 68 | 3.2 | 4.8 | 0.00 | 0.00 | 0.00 | 72 | 856.9 |
| 20260902081127 | 15 | 55 | 3.2 | 4.8 | 0.00 | 0.00 | 0.00 | 72 | 856.8 |
| 20260902080515 | 15 | 59 | 3.2 | 4.8 | 0.00 | 0.00 | 0.00 | 73 | 856.7 |
| 20260902075515 | 15 | 60 | 3.2 | 4.8 | 0.00 | 0.00 | 0.00 | 72 | 856.7 |
| 20260902074128 | 14 | 53 | 4.8 | 6.4 | 0.00 | 0.00 | 0.00 | 72 | 856.6 |
| 20260902073514 | 14 | 53 | 4.8 | 6.4 | 0.00 | 0.00 | 0.00 | 72 | 856.6 |
| 20260902072515 | 13 | 51 | 4.8 | 6.4 | 0.00 | 0.00 | 0.00 | 75 | 856.6 |
| 20260902071328 | 12 | 43 | 4.8 | 6.4 | 0.00 | 0.00 | 0.00 | 78 | 856.4 |
| 20260902070514 | 12 | 48 | 4.8 | 6.4 | 0.00 | 0.00 | 0.00 | 78 | 856.4 |
| 20260902065514 | 12 | 42 | 4.8 | 6.4 | 0.00 | 0.00 | 0.00 | 78 | 856.4 |
| 20260902064128 | 12 | 44 | 6.4 | 8.0 | 0.00 | 0.00 | 0.00 | 79 | 856.3 |
| 20260902062515 | 10 | 54 | 6.4 | 8.0 | 0.00 | 0.00 | 0.00 | 84 | 856.2 |
| 20260902061128 | 10 | 49 | 6.4 | 9.7 | 0.00 | 0.00 | 0.00 | 82 | 856.2 |
| 20260902060515 | 10 | 52 | 6.4 | 9.7 | 0.00 | 0.00 | 0.00 | 85 | 856.1 |
| 20260902055515 | 10 | 52 | 6.4 | 9.7 | 0.00 | 0.00 | 0.00 | 82 | 856.2 |
| 20260902054128 | 10 | 50 | 8.0 | 11.3 | 0.00 | 0.00 | 0.00 | 82 | 856.1 |
| 20260902053515 | 10 | 51 | 8.0 | 11.3 | 0.00 | 0.00 | 0.00 | 83 | 856.0 |
| 20260902052514 | 10 | 51 | 6.4 | 11.3 | 0.00 | 0.00 | 0.00 | 83 | 856.0 |
| 20260902051128 | 10 | 53 | 6.4 | 9.7 | 0.00 | 0.00 | 0.00 | 85 | 855.9 |
| 20260902050514 | 10 | 53 | 8.0 | 12.9 | 0.00 | 0.00 | 0.00 | 85 | 855.9 |
| 20260902045515 | 10 | 52 | 8.0 | 11.3 | 0.00 | 0.00 | 0.00 | 85 | 855.8 |
| 20260902044128 | 10 | 50 | 8.0 | 12.9 | 0.00 | 0.00 | 0.00 | 85 | 855.8 |
| 20260902043515 | 10 | 49 | 9.7 | 14.5 | 0.00 | 0.00 | 0.00 | 84 | 855.8 |
| 20260902042515 | 11 | 48 | 9.7 | 14.5 | 0.00 | 0.00 | 0.00 | 83 | 855.8 |
| 20260902041128 | 11 | 46 | 11.3 | 14.5 | 0.00 | 0.00 | 0.00 | 83 | 855.8 |
| 20260902040514 | 11 | 46 | 11.3 | 14.5 | 0.00 | 0.00 | 0.00 | 84 | 855.8 |
| 20260902035515 | 11 | 47 | 9.7 | 12.9 | 0.00 | 0.00 | 0.00 | 84 | 855.8 |
| 20260902034515 | 11 | 47 | 9.7 | 14.5 | 0.00 | 0.00 | 0.00 | 85 | 855.9 |
| 20260902033514 | 11 | 46 | 9.7 | 14.5 | 0.00 | 0.00 | 0.00 | 86 | 856.0 |
| 20260902032514 | 10 | 47 | 8.0 | 12.9 | 0.00 | 0.00 | 0.00 | 88 | 855.9 |
| 20260902031514 | 10 | 49 | 9.7 | 12.9 | 0.00 | 0.00 | 0.00 | 87 | 856.0 |
| 20260902030515 | 11 | 50 | 9.7 | 12.9 | 0.00 | 0.00 | 0.00 | 87 | 856.1 |
| 20260902025514 | 11 | 50 | 6.4 | 11.3 | 0.00 | 0.00 | 0.00 | 88 | 856.1 |
| 20260902024515 | 10 | 51 | 6.4 | 9.7 | 0.00 | 0.00 | 0.00 | 88 | 856.0 |
| 20260902023515 | 11 | 46 | 6.4 | 9.7 | 0.00 | 0.00 | 0.00 | 87 | 856.1 |
| 20260902022514 | 11 | 51 | 6.4 | 8.0 | 0.00 | 0.00 | 0.00 | 89 | 856.0 |
| 20260902021514 | 11 | 51 | 6.4 | 9.7 | 0.00 | 0.00 | 0.00 | 88 | 856.2 |
| 20260902015515 | 11 | 47 | 6.4 | 9.7 | 0.00 | 0.00 | 0.00 | 86 | 856.1 |
| 20260902014515 | 11 | 49 | 8.0 | 11.3 | 0.00 | 0.00 | 0.00 | 87 | 856.2 |
| 20260902013514 | 11 | 45 | 8.0 | 12.9 | 0.00 | 0.00 | 0.00 | 86 | 856.2 |
| 20260902012515 | 11 | 47 | 8.0 | 12.9 | 0.00 | 0.00 | 0.00 | 87 | 856.2 |
| 20260902011514 | 11 | 48 | 9.7 | 12.9 | 0.00 | 0.00 | 0.00 | 85 | 856.3 |
| 20260902010515 | 11 | 50 | 9.7 | 14.5 | 0.00 | 0.00 | 0.00 | 86 | 856.3 |
| 20260902005514 | 11 | 51 | 8.0 | 12.9 | 0.00 | 0.00 | 0.00 | 86 | 856.4 |
| 20260901221128 | 12 | 48 | 8.0 | 9.7 | 0.00 | 0.00 | 0.00 | 86 | 857.2 |
| 20260901220515 | 12 | 52 | 6.4 | 9.7 | 0.00 | 0.00 | 0.00 | 86 | 857.2 |
| 20260901215515 | 12 | 46 | 8.0 | 11.3 | 0.00 | 0.00 | 0.00 | 84 | 857.2 |
| 20260901214128 | 12 | 46 | 8.0 | 11.3 | 0.00 | 0.00 | 0.00 | 85 | 857.1 |
| 20260901213515 | 12 | 52 | 6.4 | 12.9 | 0.00 | 0.00 | 0.00 | 86 | 857.1 |
| 20260901212515 | 12 | 44 | 8.0 | 12.9 | 0.00 | 0.00 | 0.00 | 83 | 857.1 |
| 20260901211128 | 12 | 50 | 9.7 | 12.9 | 0.00 | 0.00 | 0.00 | 85 | 857.1 |
| 20260901210514 | 12 | 50 | 8.0 | 11.3 | 0.00 | 0.00 | 0.00 | 86 | 857.1 |
| 20260901205515 | 12 | 53 | 6.4 | 9.7 | 0.00 | 0.00 | 0.00 | 85 | 857.1 |